createdAt,value
2019-03-15T00:00:28.984Z,94722.23
2019-03-15T00:01:36.753Z,94719.25
2019-03-15T00:02:40.185Z,94708.66
2019-03-15T00:03:43.631Z,94723.38
2019-03-15T00:04:47.078Z,94715.94
2019-03-15T00:05:50.506Z,94720.23
2019-03-15T00:06:54.022Z,94719.31
2019-03-15T00:07:57.426Z,94725.83
2019-03-15T00:09:00.954Z,94730.49
2019-03-15T00:10:06.405Z,94730.27
2019-03-15T00:11:09.833Z,94732.51
2019-03-15T00:12:13.260Z,94732.34
2019-03-15T00:13:16.686Z,94731.80
2019-03-15T00:14:20.128Z,94728.81
2019-03-15T00:15:23.628Z,94735.72
2019-03-15T00:16:27.121Z,94734.79
2019-03-15T00:17:30.542Z,94738.88
2019-03-15T00:18:34.099Z,94735.34
2019-03-15T00:19:37.682Z,94747.61
2019-03-15T00:20:41.106Z,94741.47
2019-03-15T00:21:44.699Z,94748.53
2019-03-15T00:22:48.142Z,94752.82
2019-03-15T00:23:51.621Z,94745.39
2019-03-15T00:24:55.063Z,94751.89
2019-03-15T00:25:58.507Z,94756.19
2019-03-15T00:27:02.002Z,94746.14
2019-03-15T00:28:05.450Z,94756.57
2019-03-15T00:29:08.876Z,94749.13
2019-03-15T00:30:12.457Z,94752.45
2019-03-15T00:31:15.876Z,94757.28
2019-03-15T00:32:19.375Z,94758.24
2019-03-15T00:33:22.797Z,94757.12
2019-03-15T00:34:26.215Z,94753.58
2019-03-15T00:35:29.661Z,94765.91
2019-03-15T00:36:33.092Z,94750.98
2019-03-15T00:37:36.538Z,94758.27
2019-03-15T00:38:39.935Z,94764.02
2019-03-15T00:39:43.495Z,94770.54
2019-03-15T00:40:46.930Z,94767.97
2019-03-15T00:41:50.360Z,94770.36
2019-03-15T00:42:53.781Z,94761.98
2019-03-15T00:43:57.210Z,94761.08
2019-03-15T00:45:00.622Z,94763.30
2019-03-15T00:46:04.134Z,94771.11
2019-03-15T00:47:07.632Z,94764.59
2019-03-15T00:48:11.060Z,94773.30
2019-03-15T00:49:14.486Z,94777.95
2019-03-15T00:50:17.921Z,94782.62
2019-03-15T00:51:21.363Z,94790.82
2019-03-15T00:52:24.802Z,94784.64
2019-03-15T00:53:28.223Z,94790.98
2019-03-15T00:54:31.650Z,94769.75
2019-03-15T00:55:35.080Z,94785.77
2019-03-15T00:56:38.516Z,94775.14
2019-03-15T00:57:41.946Z,94786.16
2019-03-15T00:58:45.451Z,94780.55
2019-03-15T00:59:48.857Z,94778.48
2019-03-15T01:00:52.277Z,94778.87
2019-03-15T01:01:55.795Z,94787.23
2019-03-15T01:02:59.239Z,94785.91
2019-03-15T01:04:02.733Z,94787.01
2019-03-15T01:05:06.389Z,94793.34
2019-03-15T01:06:09.815Z,94802.25
2019-03-15T01:07:13.248Z,94797.05
2019-03-15T01:08:16.673Z,94786.98
2019-03-15T01:09:20.103Z,94794.80
2019-03-15T01:10:23.578Z,94797.43
2019-03-15T01:11:27.019Z,94793.52
2019-03-15T01:12:30.472Z,94797.59
2019-03-15T01:13:34.062Z,94801.31
2019-03-15T01:14:37.554Z,94804.47
2019-03-15T01:15:41.573Z,94799.78
2019-03-15T01:16:44.968Z,94804.22
2019-03-15T01:17:48.476Z,94808.86
2019-03-15T01:18:51.899Z,94809.81
2019-03-15T01:19:55.331Z,94812.21
2019-03-15T01:20:58.760Z,94816.72
2019-03-15T01:22:02.190Z,94810.91
2019-03-15T01:23:05.628Z,94813.52
2019-03-15T01:24:09.072Z,94810.73
2019-03-15T01:25:12.568Z,94809.20
2019-03-15T01:26:15.995Z,94814.04
2019-03-15T01:27:19.495Z,94806.82
2019-03-15T01:28:23.070Z,94802.00
2019-03-15T01:29:26.500Z,94805.70
2019-03-15T01:30:30.214Z,94798.80
2019-03-15T01:31:33.591Z,94805.29
2019-03-15T01:32:37.044Z,94808.05
2019-03-15T01:33:40.484Z,94811.56
2019-03-15T01:34:43.935Z,94813.58
2019-03-15T01:35:47.434Z,94812.81
2019-03-15T01:36:50.857Z,94810.42
2019-03-15T01:37:54.362Z,94808.19
2019-03-15T01:38:57.800Z,94813.19
2019-03-15T01:40:01.233Z,94802.35
2019-03-15T01:41:04.649Z,94804.77
2019-03-15T01:42:08.090Z,94763.20
2019-03-15T01:43:11.597Z,94816.78
2019-03-15T01:44:15.029Z,94804.83
2019-03-15T01:45:18.481Z,94808.19
2019-03-15T01:46:21.895Z,94811.52
2019-03-15T01:47:25.391Z,94813.03
2019-03-15T01:48:28.887Z,94818.27
2019-03-15T01:49:33.137Z,94816.57
2019-03-15T01:50:36.965Z,94811.18
2019-03-15T01:51:41.443Z,94810.19
2019-03-15T01:52:44.989Z,94813.66
2019-03-15T01:53:48.518Z,94812.92
2019-03-15T01:54:52.039Z,94807.50
2019-03-15T01:55:55.510Z,94823.44
2019-03-15T01:56:58.998Z,94819.38
2019-03-15T01:58:02.438Z,94819.20
2019-03-15T01:59:05.854Z,94826.49
2019-03-15T02:00:10.747Z,94819.20
2019-03-15T02:01:14.163Z,94834.53
2019-03-15T02:02:17.588Z,94828.02
2019-03-15T02:03:21.005Z,94827.69
2019-03-15T02:04:24.443Z,94827.29
2019-03-15T02:05:27.897Z,94823.72
2019-03-15T02:06:31.395Z,94834.19
2019-03-15T02:07:34.837Z,94833.47
2019-03-15T02:08:38.241Z,94835.89
2019-03-15T02:09:41.677Z,94832.92
2019-03-15T02:10:45.184Z,94833.44
2019-03-15T02:11:48.675Z,94833.41
2019-03-15T02:12:52.110Z,94827.08
2019-03-15T02:13:55.547Z,94826.51
2019-03-15T02:14:58.969Z,94834.71
2019-03-15T02:16:02.479Z,94829.50
2019-03-15T02:17:05.904Z,94830.98
2019-03-15T02:18:09.327Z,94824.33
2019-03-15T02:19:12.775Z,94827.23
2019-03-15T02:20:16.406Z,94820.30
2019-03-15T02:21:22.763Z,94826.45
2019-03-15T02:22:26.187Z,94815.67
2019-03-15T02:23:29.631Z,94829.41
2019-03-15T02:24:33.082Z,94828.66
2019-03-15T02:25:36.499Z,94830.33
2019-03-15T02:26:39.954Z,94828.30
2019-03-15T02:27:43.449Z,94827.00
2019-03-15T02:28:47.022Z,94832.02
2019-03-15T02:29:50.461Z,94832.02
2019-03-15T02:30:53.956Z,94833.72
2019-03-15T02:31:57.410Z,94839.10
2019-03-15T02:33:00.829Z,94841.92
2019-03-15T02:34:04.279Z,94837.98
2019-03-15T02:35:07.743Z,94829.57
2019-03-15T02:36:11.279Z,94843.73
2019-03-15T02:37:14.759Z,94843.38
2019-03-15T02:38:18.202Z,94845.58
2019-03-15T02:39:21.615Z,94843.92
2019-03-15T02:40:25.054Z,94843.92
2019-03-15T02:41:28.469Z,94850.64
2019-03-15T02:42:31.919Z,94849.88
2019-03-15T02:43:35.350Z,94848.97
2019-03-15T02:44:39.310Z,94852.84
2019-03-15T02:45:42.871Z,94858.42
2019-03-15T02:46:46.370Z,94857.84
2019-03-15T02:47:49.812Z,94859.91
2019-03-15T02:48:53.309Z,94867.56
2019-03-15T02:49:56.735Z,94870.34
2019-03-15T02:51:00.164Z,94865.71
2019-03-15T02:52:03.588Z,94861.59
2019-03-15T02:53:07.029Z,94864.95
2019-03-15T02:54:10.454Z,94867.53
2019-03-15T02:55:13.949Z,94871.02
2019-03-15T02:56:17.373Z,94867.17
2019-03-15T02:57:20.801Z,94864.47
2019-03-15T02:58:24.258Z,94869.89
2019-03-15T02:59:27.687Z,94870.28
2019-03-15T03:00:31.099Z,94872.49
2019-03-15T03:01:34.527Z,94871.19
2019-03-15T03:02:37.957Z,94876.94
2019-03-15T03:03:41.392Z,94862.56
2019-03-15T03:04:44.847Z,94861.27
2019-03-15T03:05:48.272Z,94869.28
2019-03-15T03:06:51.695Z,94867.98
2019-03-15T03:07:55.125Z,94876.34
2019-03-15T03:08:58.574Z,94872.43
2019-03-15T03:10:02.587Z,94874.48
2019-03-15T03:11:05.985Z,94877.48
2019-03-15T03:12:09.411Z,94876.00
2019-03-15T03:13:12.909Z,94877.48
2019-03-15T03:14:16.356Z,94879.73
2019-03-15T03:15:19.788Z,94890.72
2019-03-15T03:16:23.214Z,94893.14
2019-03-15T03:17:26.713Z,94893.56
2019-03-15T03:18:30.138Z,94891.69
2019-03-15T03:19:33.647Z,94895.59
2019-03-15T03:20:37.101Z,94886.69
2019-03-15T03:21:40.505Z,94900.41
2019-03-15T03:22:44.001Z,94898.70
2019-03-15T03:23:47.447Z,94909.13
2019-03-15T03:24:51.137Z,94902.03
2019-03-15T03:25:54.647Z,94905.03
2019-03-15T03:26:58.073Z,94907.13
2019-03-15T03:28:01.550Z,94902.86
2019-03-15T03:29:05.007Z,94900.08
2019-03-15T03:30:10.365Z,94901.13
2019-03-15T03:31:15.618Z,94897.41
2019-03-15T03:32:19.107Z,94891.84
2019-03-15T03:33:22.530Z,94890.39
2019-03-15T03:34:25.950Z,94902.50
2019-03-15T03:35:29.458Z,94894.14
2019-03-15T03:36:32.964Z,94906.80
2019-03-15T03:37:36.460Z,94911.42
2019-03-15T03:38:39.907Z,94915.88
2019-03-15T03:39:43.312Z,94913.48
2019-03-15T03:40:46.899Z,94921.12
2019-03-15T03:41:50.350Z,94917.94
2019-03-15T03:42:53.799Z,94921.62
2019-03-15T03:43:57.339Z,94913.78
2019-03-15T03:45:00.763Z,94916.75
2019-03-15T03:46:04.211Z,94924.95
2019-03-15T03:47:07.650Z,94918.05
2019-03-15T03:48:11.084Z,94914.33
2019-03-15T03:49:14.509Z,94917.33
2019-03-15T03:50:18.081Z,94915.13
2019-03-15T03:51:21.600Z,94917.87
2019-03-15T03:52:25.048Z,94918.23
2019-03-15T03:53:28.545Z,94918.63
2019-03-15T03:54:31.981Z,94915.88
2019-03-15T03:55:35.404Z,94921.45
2019-03-15T03:56:38.991Z,94924.23
2019-03-15T03:57:42.506Z,94927.20
2019-03-15T03:58:46.009Z,94932.95
2019-03-15T03:59:49.695Z,94927.56
2019-03-15T04:00:53.190Z,94925.86
2019-03-15T04:01:56.622Z,94926.05
2019-03-15T04:03:00.209Z,94931.47
2019-03-15T04:04:03.769Z,94920.14
2019-03-15T04:05:07.264Z,94926.84
2019-03-15T04:06:11.431Z,94928.89
2019-03-15T04:07:15.017Z,94933.34
2019-03-15T04:08:18.440Z,94933.85
2019-03-15T04:09:21.928Z,94934.86
2019-03-15T04:10:25.351Z,94922.10
2019-03-15T04:11:28.807Z,94943.10
2019-03-15T04:12:32.222Z,94940.16
2019-03-15T04:13:35.641Z,94944.77
2019-03-15T04:14:39.066Z,94946.83
2019-03-15T04:15:42.489Z,94940.70
2019-03-15T04:16:45.928Z,94939.95
2019-03-15T04:17:49.369Z,94942.77
2019-03-15T04:18:52.802Z,94940.70
2019-03-15T04:19:56.224Z,94945.77
2019-03-15T04:20:59.652Z,94942.27
2019-03-15T04:22:03.148Z,94947.11
2019-03-15T04:23:06.598Z,94944.86
2019-03-15T04:24:10.094Z,94944.72
2019-03-15T04:25:13.517Z,94948.66
2019-03-15T04:26:17.137Z,94949.20
2019-03-15T04:27:20.507Z,94943.84
2019-03-15T04:28:24.032Z,94940.48
2019-03-15T04:29:27.447Z,94946.27
2019-03-15T04:30:30.864Z,94949.74
2019-03-15T04:31:34.291Z,94949.34
2019-03-15T04:32:37.710Z,94950.86
2019-03-15T04:33:41.151Z,94949.34
2019-03-15T04:34:44.673Z,94946.59
2019-03-15T04:35:48.181Z,94943.84
2019-03-15T04:36:51.602Z,94952.27
2019-03-15T04:37:55.087Z,94950.96
2019-03-15T04:38:58.604Z,94953.96
2019-03-15T04:40:02.098Z,94954.87
2019-03-15T04:41:05.587Z,94957.47
2019-03-15T04:42:09.010Z,94957.47
2019-03-15T04:43:12.433Z,94957.47
2019-03-15T04:44:16.146Z,94961.16
2019-03-15T04:45:19.544Z,94969.52
2019-03-15T04:46:22.977Z,94964.38
2019-03-15T04:47:26.407Z,94960.87
2019-03-15T04:48:29.820Z,94961.63
2019-03-15T04:49:33.288Z,94957.36
2019-03-15T04:50:36.714Z,94961.88
2019-03-15T04:51:40.138Z,94962.81
2019-03-15T04:52:43.558Z,94953.84
2019-03-15T04:53:46.980Z,94959.99
2019-03-15T04:54:50.434Z,94963.72
2019-03-15T04:55:53.858Z,94964.27
2019-03-15T04:56:57.280Z,94967.48
2019-03-15T04:58:00.710Z,94964.66
2019-03-15T04:59:04.203Z,94968.38
2019-03-15T05:00:14.127Z,94965.56
2019-03-15T05:01:17.544Z,94958.11
2019-03-15T05:02:20.972Z,94968.32
2019-03-15T05:03:24.393Z,94956.05
2019-03-15T05:04:27.896Z,94963.90
2019-03-15T05:05:31.340Z,94960.20
2019-03-15T05:06:34.842Z,94956.48
2019-03-15T05:07:38.261Z,94951.52
2019-03-15T05:08:41.706Z,94949.67
2019-03-15T05:09:45.101Z,94955.00
2019-03-15T05:10:48.561Z,94961.54
2019-03-15T05:11:51.977Z,94968.45
2019-03-15T05:12:55.402Z,94968.81
2019-03-15T05:13:59.287Z,94975.56
2019-03-15T05:15:02.719Z,94978.78
2019-03-15T05:16:06.231Z,94980.96
2019-03-15T05:17:09.727Z,94976.11
2019-03-15T05:18:13.154Z,94971.12
2019-03-15T05:19:16.593Z,94969.23
2019-03-15T05:20:21.262Z,94974.30
2019-03-15T05:21:24.827Z,94975.96
2019-03-15T05:22:28.257Z,94977.42
2019-03-15T05:23:31.671Z,94975.17
2019-03-15T05:24:35.133Z,94975.56
2019-03-15T05:25:38.583Z,94975.56
2019-03-15T05:26:42.095Z,94981.94
2019-03-15T05:27:45.519Z,94981.78
2019-03-15T05:28:48.944Z,94984.02
2019-03-15T05:29:52.369Z,94981.62
2019-03-15T05:30:55.798Z,94974.20
2019-03-15T05:31:59.239Z,94976.05
2019-03-15T05:33:02.685Z,94986.78
2019-03-15T05:34:06.105Z,94992.78
2019-03-15T05:35:09.669Z,94989.62
2019-03-15T05:36:13.090Z,94988.69
2019-03-15T05:37:16.533Z,94985.57
2019-03-15T05:38:19.980Z,94987.63
2019-03-15T05:39:23.400Z,94986.88
2019-03-15T05:40:26.826Z,94984.05
2019-03-15T05:41:30.251Z,94988.17
2019-03-15T05:42:33.711Z,94985.36
2019-03-15T05:43:37.127Z,94987.78
2019-03-15T05:44:40.553Z,94985.72
2019-03-15T05:45:44.043Z,94981.84
2019-03-15T05:46:47.466Z,94975.94
2019-03-15T05:47:50.906Z,94973.33
2019-03-15T05:48:54.423Z,94976.69
2019-03-15T05:49:57.851Z,94972.39
2019-03-15T05:51:01.290Z,94970.54
2019-03-15T05:52:04.793Z,94971.84
2019-03-15T05:53:08.327Z,94978.17
2019-03-15T05:54:11.743Z,94978.78
2019-03-15T05:55:15.437Z,94987.36
2019-03-15T05:56:18.887Z,94986.05
2019-03-15T05:57:22.307Z,94990.51
2019-03-15T05:58:25.752Z,94989.60
2019-03-15T05:59:29.167Z,94992.60
2019-03-15T06:00:32.600Z,94991.14
2019-03-15T06:01:36.022Z,94991.14
2019-03-15T06:02:39.451Z,94995.60
2019-03-15T06:03:48.427Z,95004.72
2019-03-15T06:04:48.046Z,95012.00
2019-03-15T06:05:51.475Z,95008.69
2019-03-15T06:06:54.901Z,95012.39
2019-03-15T06:07:58.395Z,95015.36
2019-03-15T06:09:01.915Z,95001.72
2019-03-15T06:10:08.239Z,95010.60
2019-03-15T06:11:11.677Z,95001.63
2019-03-15T06:12:15.246Z,94995.52
2019-03-15T06:13:18.705Z,94996.08
2019-03-15T06:14:22.263Z,94991.42
2019-03-15T06:15:25.872Z,94996.48
2019-03-15T06:16:29.280Z,94994.27
2019-03-15T06:17:32.696Z,94993.91
2019-03-15T06:18:36.120Z,94987.78
2019-03-15T06:19:39.565Z,94988.33
2019-03-15T06:20:42.991Z,94989.05
2019-03-15T06:21:46.440Z,94988.45
2019-03-15T06:22:49.863Z,94992.97
2019-03-15T06:23:53.289Z,94992.42
2019-03-15T06:24:56.732Z,94992.42
2019-03-15T06:26:00.176Z,94989.09
2019-03-15T06:27:03.677Z,94976.81
2019-03-15T06:28:07.115Z,94983.72
2019-03-15T06:29:10.537Z,94993.75
2019-03-15T06:30:14.922Z,94987.39
2019-03-15T06:31:18.352Z,94991.69
2019-03-15T06:32:21.845Z,94990.23
2019-03-15T06:33:28.442Z,94988.57
2019-03-15T06:34:30.614Z,94978.11
2019-03-15T06:35:34.119Z,94975.53
2019-03-15T06:36:37.550Z,94980.93
2019-03-15T06:37:41.040Z,94981.48
2019-03-15T06:38:44.509Z,94981.33
2019-03-15T06:39:47.931Z,94984.27
2019-03-15T06:40:51.382Z,94989.45
2019-03-15T06:41:54.876Z,94992.23
2019-03-15T06:42:58.304Z,95002.48
2019-03-15T06:44:01.732Z,95000.78
2019-03-15T06:45:08.568Z,94998.75
2019-03-15T06:46:12.016Z,94993.00
2019-03-15T06:47:15.440Z,94992.23
2019-03-15T06:48:18.866Z,95004.33
2019-03-15T06:49:22.287Z,95012.15
2019-03-15T06:50:25.714Z,95015.63
2019-03-15T06:51:29.151Z,95016.94
2019-03-15T06:52:32.588Z,95017.17
2019-03-15T06:53:36.019Z,95006.18
2019-03-15T06:54:39.515Z,94996.14
2019-03-15T06:55:42.937Z,94984.23
2019-03-15T06:56:46.391Z,94991.30
2019-03-15T06:57:49.860Z,94998.02
2019-03-15T06:58:53.290Z,95010.48
2019-03-15T06:59:59.479Z,95015.91
2019-03-15T07:01:01.983Z,95014.81
2019-03-15T07:02:05.451Z,95010.39
2019-03-15T07:03:08.913Z,95015.55
2019-03-15T07:04:12.339Z,95014.81
2019-03-15T07:05:15.904Z,95013.91
2019-03-15T07:06:19.324Z,95013.73
2019-03-15T07:07:22.775Z,95008.52
2019-03-15T07:08:26.204Z,95002.42
2019-03-15T07:09:30.915Z,94999.45
2019-03-15T07:10:34.441Z,94999.47
2019-03-15T07:11:37.933Z,95000.23
2019-03-15T07:12:41.408Z,94987.20
2019-03-15T07:13:44.832Z,94985.69
2019-03-15T07:14:48.267Z,94980.98
2019-03-15T07:15:51.708Z,94983.41
2019-03-15T07:16:55.206Z,94993.32
2019-03-15T07:17:58.656Z,94996.71
2019-03-15T07:19:03.128Z,94996.80
2019-03-15T07:20:09.671Z,94992.16
2019-03-15T07:21:13.735Z,94994.22
2019-03-15T07:22:19.810Z,94995.89
2019-03-15T07:23:22.332Z,94994.98
2019-03-15T07:24:25.883Z,94999.98
2019-03-15T07:25:29.261Z,94994.89
2019-03-15T07:26:32.689Z,94996.80
2019-03-15T07:27:36.176Z,94995.34
2019-03-15T07:28:39.625Z,94989.76
2019-03-15T07:29:43.047Z,94985.64
2019-03-15T07:30:46.462Z,94984.55
2019-03-15T07:31:49.884Z,94991.66
2019-03-15T07:32:53.340Z,94980.27
2019-03-15T07:33:56.854Z,94987.75
2019-03-15T07:35:00.307Z,94986.23
2019-03-15T07:36:03.768Z,94988.66
2019-03-15T07:37:07.196Z,94986.45
2019-03-15T07:38:10.607Z,94987.78
2019-03-15T07:39:14.044Z,94994.33
2019-03-15T07:40:18.305Z,94995.84
2019-03-15T07:41:21.773Z,94987.26
2019-03-15T07:42:25.209Z,94988.77
2019-03-15T07:43:28.617Z,94988.95
2019-03-15T07:44:32.059Z,94981.67
2019-03-15T07:45:35.477Z,94989.50
2019-03-15T07:46:38.903Z,94994.72
2019-03-15T07:47:42.328Z,95005.95
2019-03-15T07:48:45.753Z,94996.62
2019-03-15T07:49:49.196Z,95004.99
2019-03-15T07:50:52.693Z,95002.20
2019-03-15T07:51:56.114Z,95007.03
2019-03-15T07:52:59.549Z,94996.78
2019-03-15T07:54:03.061Z,94989.16
2019-03-15T07:55:08.361Z,94999.23
2019-03-15T07:56:11.787Z,95008.91
2019-03-15T07:57:15.294Z,95008.36
2019-03-15T07:58:18.724Z,94999.83
2019-03-15T07:59:22.780Z,95004.45
2019-03-15T08:00:26.341Z,95007.36
2019-03-15T08:01:29.764Z,95004.97
2019-03-15T08:02:33.254Z,95008.72
2019-03-15T08:03:36.749Z,95013.39
2019-03-15T08:04:40.179Z,95005.56
2019-03-15T08:05:43.618Z,95012.48
2019-03-15T08:06:47.069Z,95021.55
2019-03-15T08:07:50.508Z,95016.49
2019-03-15T08:08:53.941Z,95026.02
2019-03-15T08:09:57.364Z,95030.84
2019-03-15T08:11:00.812Z,95021.08
2019-03-15T08:12:04.452Z,95017.98
2019-03-15T08:13:07.830Z,95030.27
2019-03-15T08:14:11.259Z,95029.87
2019-03-15T08:15:14.907Z,95035.78
2019-03-15T08:16:18.352Z,95035.60
2019-03-15T08:17:21.800Z,95025.91
2019-03-15T08:18:25.229Z,95032.09
2019-03-15T08:19:28.721Z,95030.72
2019-03-15T08:20:32.142Z,95038.91
2019-03-15T08:21:35.585Z,95037.73
2019-03-15T08:22:39.023Z,95034.52
2019-03-15T08:23:42.454Z,95041.40
2019-03-15T08:24:51.542Z,95034.73
2019-03-15T08:25:51.183Z,95034.52
2019-03-15T08:26:54.608Z,95026.81
2019-03-15T08:27:58.037Z,95039.76
2019-03-15T08:29:01.509Z,95025.66
2019-03-15T08:30:10.956Z,95025.45
2019-03-15T08:31:14.458Z,95023.20
2019-03-15T08:32:17.912Z,95024.36
2019-03-15T08:33:21.361Z,95028.84
2019-03-15T08:34:24.763Z,95022.55
2019-03-15T08:35:28.219Z,95040.29
2019-03-15T08:36:31.713Z,95029.77
2019-03-15T08:37:35.160Z,95033.50
2019-03-15T08:38:47.243Z,95023.16
2019-03-15T08:39:43.755Z,95032.28
2019-03-15T08:40:47.245Z,95033.25
2019-03-15T08:41:50.664Z,95031.09
2019-03-15T08:42:54.111Z,95029.09
2019-03-15T08:43:57.540Z,95029.23
2019-03-15T08:45:00.968Z,95034.88
2019-03-15T08:46:04.457Z,95033.39
2019-03-15T08:47:07.912Z,95031.63
2019-03-15T08:48:11.360Z,95027.39
2019-03-15T08:49:14.799Z,95032.78
2019-03-15T08:50:20.136Z,95040.60
2019-03-15T08:51:23.547Z,95037.84
2019-03-15T08:52:26.966Z,95038.79
2019-03-15T08:53:30.435Z,95042.77
2019-03-15T08:54:33.939Z,95022.65
2019-03-15T08:55:39.900Z,95035.60
2019-03-15T08:56:42.508Z,95044.91
2019-03-15T08:57:46.024Z,95033.80
2019-03-15T08:58:49.462Z,95037.88
2019-03-15T08:59:57.421Z,95039.30
2019-03-15T09:00:58.078Z,95038.90
2019-03-15T09:02:01.470Z,95038.47
2019-03-15T09:03:05.039Z,95039.20
2019-03-15T09:04:08.479Z,95035.14
2019-03-15T09:05:13.115Z,95033.66
2019-03-15T09:06:16.553Z,95039.80
2019-03-15T09:07:19.970Z,95036.51
2019-03-15T09:08:23.408Z,95031.70
2019-03-15T09:09:26.912Z,95049.28
2019-03-15T09:10:30.417Z,95032.09
2019-03-15T09:11:33.845Z,95030.41
2019-03-15T09:12:37.740Z,95031.34
2019-03-15T09:13:41.162Z,95025.23
2019-03-15T09:14:44.677Z,95028.38
2019-03-15T09:15:48.107Z,95024.14
2019-03-15T09:16:51.526Z,95033.00
2019-03-15T09:17:54.949Z,95022.63
2019-03-15T09:18:58.439Z,95023.02
2019-03-15T09:20:01.889Z,95033.91
2019-03-15T09:21:05.330Z,95019.58
2019-03-15T09:22:08.760Z,95024.42
2019-03-15T09:23:12.183Z,95019.52
2019-03-15T09:24:15.602Z,95022.88
2019-03-15T09:25:20.897Z,95016.72
2019-03-15T09:26:24.588Z,95017.31
2019-03-15T09:27:28.073Z,95013.25
2019-03-15T09:28:31.483Z,95021.87
2019-03-15T09:29:34.917Z,95016.11
2019-03-15T09:30:38.372Z,95009.89
2019-03-15T09:31:47.851Z,95007.65
2019-03-15T09:32:46.965Z,95009.64
2019-03-15T09:33:50.467Z,95012.10
2019-03-15T09:34:55.719Z,95008.77
2019-03-15T09:35:59.317Z,95012.71
2019-03-15T09:37:02.772Z,95010.86
2019-03-15T09:38:06.209Z,94996.88
2019-03-15T09:39:09.646Z,95008.55
2019-03-15T09:40:15.543Z,94998.50
2019-03-15T09:41:30.846Z,95001.14
2019-03-15T09:42:24.158Z,95000.98
2019-03-15T09:43:27.593Z,95009.05
2019-03-15T09:44:31.082Z,95001.10
2019-03-15T09:45:34.541Z,94999.22
2019-03-15T09:46:37.981Z,95001.75
2019-03-15T09:47:41.425Z,95014.77
2019-03-15T09:48:44.844Z,95002.05
2019-03-15T09:49:48.273Z,95010.36
2019-03-15T09:50:51.997Z,94999.55
2019-03-15T09:51:55.426Z,95009.56
2019-03-15T09:52:58.918Z,95000.70
2019-03-15T09:54:02.336Z,95001.65
2019-03-15T09:55:08.496Z,95002.26
2019-03-15T09:56:11.923Z,95009.31
2019-03-15T09:57:15.366Z,95002.26
2019-03-15T09:58:18.807Z,95005.55
2019-03-15T09:59:22.242Z,95000.45
2019-03-15T10:00:25.668Z,94996.19
2019-03-15T10:01:35.181Z,95001.39
2019-03-15T10:02:34.267Z,95002.66
2019-03-15T10:03:37.706Z,94994.13
2019-03-15T10:04:41.134Z,94991.52
2019-03-15T10:05:44.562Z,94991.88
2019-03-15T10:06:48.014Z,94994.84
2019-03-15T10:07:51.457Z,94988.59
2019-03-15T10:08:54.881Z,94983.20
2019-03-15T10:09:58.304Z,94990.03
2019-03-15T10:11:01.723Z,94980.20
2019-03-15T10:12:05.345Z,94982.30
2019-03-15T10:13:08.856Z,94984.61
2019-03-15T10:14:12.343Z,94977.19
2019-03-15T10:15:16.507Z,94976.28
2019-03-15T10:16:19.934Z,94973.89
2019-03-15T10:17:23.356Z,94974.41
2019-03-15T10:18:26.814Z,94971.44
2019-03-15T10:19:30.230Z,94968.47
2019-03-15T10:20:33.657Z,94966.47
2019-03-15T10:21:37.076Z,94979.20
2019-03-15T10:22:40.656Z,94968.78
2019-03-15T10:23:44.085Z,94969.27
2019-03-15T10:24:47.498Z,94964.05
2019-03-15T10:25:51.458Z,94960.14
2019-03-15T10:26:54.996Z,94967.66
2019-03-15T10:27:58.411Z,94963.90
2019-03-15T10:29:14.786Z,94956.18
2019-03-15T10:30:14.803Z,94968.94
2019-03-15T10:31:18.224Z,94954.30
2019-03-15T10:32:21.649Z,94955.97
2019-03-15T10:33:25.134Z,94962.23
2019-03-15T10:34:28.576Z,94966.15
2019-03-15T10:35:31.997Z,94951.73
2019-03-15T10:36:35.411Z,94945.16
2019-03-15T10:37:38.830Z,94945.91
2019-03-15T10:38:42.253Z,94944.70
2019-03-15T10:39:45.713Z,94928.76
2019-03-15T10:40:49.224Z,94941.45
2019-03-15T10:41:52.646Z,94946.03
2019-03-15T10:42:56.133Z,94931.67
2019-03-15T10:43:59.547Z,94931.28
2019-03-15T10:45:03.257Z,94941.94
2019-03-15T10:46:06.774Z,94936.37
2019-03-15T10:47:10.167Z,94933.84
2019-03-15T10:48:24.634Z,94934.63
2019-03-15T10:49:18.748Z,94930.36
2019-03-15T10:50:22.197Z,94932.18
2019-03-15T10:51:25.647Z,94940.15
2019-03-15T10:52:29.146Z,94928.27
2019-03-15T10:53:32.568Z,94924.81
2019-03-15T10:54:35.988Z,94927.81
2019-03-15T10:55:39.431Z,94922.95
2019-03-15T10:56:42.859Z,94920.35
2019-03-15T10:57:46.363Z,94918.16
2019-03-15T10:58:49.862Z,94922.62
2019-03-15T10:59:53.279Z,94911.05
2019-03-15T11:00:56.734Z,94920.77
2019-03-15T11:02:00.225Z,94913.16
2019-03-15T11:03:03.717Z,94920.64
2019-03-15T11:04:07.208Z,94905.60
2019-03-15T11:05:11.069Z,94905.78
2019-03-15T11:06:14.593Z,94904.30
2019-03-15T11:07:18.022Z,94907.09
2019-03-15T11:08:24.045Z,94910.13
2019-03-15T11:09:26.743Z,94911.23
2019-03-15T11:10:30.214Z,94904.39
2019-03-15T11:11:33.661Z,94909.06
2019-03-15T11:12:37.080Z,94902.17
2019-03-15T11:13:40.509Z,94906.69
2019-03-15T11:14:43.953Z,94904.08
2019-03-15T11:15:47.400Z,94901.10
2019-03-15T11:16:50.873Z,94910.25
2019-03-15T11:17:54.406Z,94906.00
2019-03-15T11:18:57.899Z,94901.17
2019-03-15T11:20:01.328Z,94913.25
2019-03-15T11:21:04.827Z,94904.17
2019-03-15T11:22:08.274Z,94901.24
2019-03-15T11:23:11.738Z,94909.80
2019-03-15T11:24:15.154Z,94906.25
2019-03-15T11:25:18.583Z,94898.83
2019-03-15T11:26:22.004Z,94909.18
2019-03-15T11:27:25.450Z,94904.14
2019-03-15T11:28:28.894Z,94902.30
2019-03-15T11:29:32.370Z,94898.92
2019-03-15T11:30:35.786Z,94909.59
2019-03-15T11:31:39.276Z,94911.09
2019-03-15T11:32:42.800Z,94907.96
2019-03-15T11:33:47.506Z,94914.33
2019-03-15T11:34:51.050Z,94915.48
2019-03-15T11:35:54.536Z,94915.46
2019-03-15T11:36:58.743Z,94924.06
2019-03-15T11:38:02.334Z,94924.98
2019-03-15T11:39:07.110Z,94921.45
2019-03-15T11:40:18.928Z,94924.23
2019-03-15T11:41:21.245Z,94917.54
2019-03-15T11:42:24.735Z,94927.99
2019-03-15T11:43:28.173Z,94915.70
2019-03-15T11:44:31.599Z,94909.73
2019-03-15T11:45:35.094Z,94913.66
2019-03-15T11:46:38.531Z,94922.45
2019-03-15T11:48:01.114Z,94914.80
2019-03-15T11:48:47.259Z,94914.45
2019-03-15T11:49:50.684Z,94916.48
2019-03-15T11:50:54.182Z,94910.92
2019-03-15T11:51:57.611Z,94912.25
2019-03-15T11:53:01.176Z,94914.14
2019-03-15T11:54:04.694Z,94904.25
2019-03-15T11:55:09.849Z,94905.56
2019-03-15T11:56:26.227Z,94900.92
2019-03-15T11:57:18.494Z,94903.73
2019-03-15T11:58:21.908Z,94907.64
2019-03-15T11:59:25.354Z,94912.52
2019-03-15T12:00:28.864Z,94915.13
2019-03-15T12:01:32.356Z,94906.38
2019-03-15T12:02:35.775Z,94913.47
2019-03-15T12:03:52.188Z,94906.43
2019-03-15T12:04:44.427Z,94907.74
2019-03-15T12:05:47.868Z,94914.48
2019-03-15T12:06:51.291Z,94902.91
2019-03-15T12:07:54.750Z,94915.42
2019-03-15T12:08:58.203Z,94907.59
2019-03-15T12:10:01.628Z,94898.28
2019-03-15T12:11:05.188Z,94891.20
2019-03-15T12:12:08.634Z,94895.33
2019-03-15T12:13:12.054Z,94887.88
2019-03-15T12:14:15.498Z,94893.48
2019-03-15T12:15:19.781Z,94886.75
2019-03-15T12:16:23.205Z,94888.84
2019-03-15T12:17:26.626Z,94882.86
2019-03-15T12:18:30.050Z,94877.47
2019-03-15T12:19:33.492Z,94882.11
2019-03-15T12:20:36.945Z,94886.24
2019-03-15T12:21:40.372Z,94872.25
2019-03-15T12:22:43.868Z,94881.44
2019-03-15T12:23:47.291Z,94885.90
2019-03-15T12:24:50.742Z,94876.96
2019-03-15T12:25:54.187Z,94876.59
2019-03-15T12:26:57.621Z,94869.13